Time;durP1;ratioP1;P1;durP2;ratioP2;P2;SDS_P1;SDS_P2;PMS_P1;PMS_P2;Temp;Humidity;BMP_temperature;BMP_pressure;BME280_temperature;BME280_humidity;BME280_pressure;Samples;Min_cycle;Max_cycle;Signal;HPM_P1;HPM_P2
2022/03/24 00:00:56;;;;;;;71.43;32.28;;;;;;;;;;4877799;29;20537;-83
2022/03/24 00:03:23;;;;;;;77.38;33.15;;;;;;;;;;4879314;29;20080;-83
2022/03/24 00:05:53;;;;;;;70.20;33.50;;;;;;;;;;4895049;29;20133;-83
2022/03/24 00:08:19;;;;;;;81.70;34.63;;;;;;;;;;4878362;29;20094;-83
2022/03/24 00:10:46;;;;;;;71.03;32.95;;;;;;;;;;4894513;29;20057;-84
2022/03/24 00:13:14;;;;;;;81.15;33.38;;;;;;;;;;4880707;29;20566;-83
2022/03/24 00:15:40;;;;;;;80.43;33.75;;;;;;;;;;4877682;29;20124;-83
2022/03/24 00:18:07;;;;;;;86.63;35.75;;;;;;;;;;4874673;29;20051;-82
2022/03/24 00:20:34;;;;;;;91.78;37.75;;;;;;;;;;4896508;29;20131;-82
2022/03/24 00:23:01;;;;;;;88.63;38.28;;;;;;;;;;4877829;29;20104;-85
2022/03/24 00:25:28;;;;;;;96.27;39.23;;;;;;;;;;4878809;29;20521;-84
2022/03/24 00:27:55;;;;;;;100.35;38.97;;;;;;;;;;4879721;29;20336;-85
2022/03/24 00:30:22;;;;;;;96.30;40.00;;;;;;;;;;4894670;29;20052;-84
2022/03/24 00:32:48;;;;;;;97.03;40.10;;;;;;;;;;4880288;29;20052;-84
2022/03/24 00:35:23;;;;;;;87.30;36.63;;;;;;;;;;4879968;29;20144;-85
2022/03/24 00:37:53;;;;;;;94.68;37.58;;;;;;;;;;4873408;29;20521;-85
2022/03/24 00:40:19;;;;;;;92.47;37.13;;;;;;;;;;4877489;29;20077;-84
2022/03/24 00:42:46;;;;;;;87.50;37.38;;;;;;;;;;4896649;29;20052;-85
2022/03/24 00:45:20;;;;;;;88.97;35.50;;;;;;;;;;4894811;29;20056;-84
2022/03/24 00:47:47;;;;;;;;;;;;;;;;;;4879889;29;20128;-85
2022/03/24 00:50:14;;;;;;;90.55;34.15;;;;;;;;;;4872333;29;19967;-83
2022/03/24 00:52:47;;;;;;;89.32;35.63;;;;;;;;;;4880602;29;20083;-84
2022/03/24 00:55:18;;;;;;;92.28;37.05;;;;;;;;;;4895612;29;20432;-84
2022/03/24 00:57:46;;;;;;;91.30;36.50;;;;;;;;;;4894949;29;20095;-84
2022/03/24 01:00:15;;;;;;;93.32;37.75;;;;;;;;;;4883829;29;20060;-83
2022/03/24 01:02:43;;;;;;;100.15;37.47;;;;;;;;;;4878062;29;20072;-84
2022/03/24 01:05:12;;;;;;;96.32;38.30;;;;;;;;;;4878355;29;20104;-84
2022/03/24 01:07:42;;;;;;;108.00;39.97;;;;;;;;;;4878626;29;20488;-84
2022/03/24 01:10:09;;;;;;;105.85;40.42;;;;;;;;;;4877721;29;20398;-84
2022/03/24 01:12:36;;;;;;;109.78;41.22;;;;;;;;;;4877653;29;20056;-84
2022/03/24 01:15:07;;;;;;;109.32;41.30;;;;;;;;;;4879069;29;20063;-85
2022/03/24 01:17:34;;;;;;;112.50;42.10;;;;;;;;;;4878679;29;20056;-84
2022/03/24 01:20:01;;;;;;;114.70;41.03;;;;;;;;;;4877559;29;20159;-84
2022/03/24 01:22:28;;;;;;;114.20;43.13;;;;;;;;;;4877844;29;20080;-85
2022/03/24 01:24:56;;;;;;;115.60;42.72;;;;;;;;;;4878561;29;20071;-84
2022/03/24 01:27:28;;;;;;;118.75;43.08;;;;;;;;;;4861505;29;20129;-83
2022/03/24 01:29:55;;;;;;;115.47;43.05;;;;;;;;;;4879183;29;20067;-83
2022/03/24 01:32:22;;;;;;;125.88;42.97;;;;;;;;;;4880447;29;20466;-84
2022/03/24 01:34:48;;;;;;;102.25;33.20;;;;;;;;;;4864380;29;20601;-84
2022/03/24 01:37:15;;;;;;;114.93;41.35;;;;;;;;;;4864908;29;20076;-83
2022/03/24 01:39:42;;;;;;;130.32;43.78;;;;;;;;;;4884160;29;20561;-85
2022/03/24 01:42:08;;;;;;;127.55;45.63;;;;;;;;;;4896446;29;20056;-84
2022/03/24 01:44:35;;;;;;;119.32;44.30;;;;;;;;;;4872551;29;21410;-83
2022/03/24 01:47:07;;;;;;;125.80;45.97;;;;;;;;;;4860760;29;20052;-83
2022/03/24 01:49:35;;;;;;;141.63;47.83;;;;;;;;;;4879585;29;20067;-85
2022/03/24 01:52:05;;;;;;;124.35;45.05;;;;;;;;;;4865812;29;20185;-84
2022/03/24 01:54:32;;;;;;;144.90;48.72;;;;;;;;;;4860533;29;20064;-84
2022/03/24 01:56:58;;;;;;;172.90;54.33;;;;;;;;;;4873103;29;20057;-84
2022/03/24 01:59:31;;;;;;;167.00;52.22;;;;;;;;;;4862055;29;20392;-84
2022/03/24 02:01:58;;;;;;;184.95;54.70;;;;;;;;;;4870697;29;20143;-84
2022/03/24 02:04:24;;;;;;;130.77;40.10;;;;;;;;;;4883512;29;20052;-84
2022/03/24 02:06:51;;;;;;;164.77;51.07;;;;;;;;;;4861129;29;20096;-85
2022/03/24 02:09:18;;;;;;;185.98;52.53;;;;;;;;;;4862515;29;20895;-83
2022/03/24 02:11:44;;;;;;;190.27;56.90;;;;;;;;;;4879392;29;20059;-84
2022/03/24 02:14:13;;;;;;;182.45;53.60;;;;;;;;;;4878238;29;20057;-84
2022/03/24 02:16:40;;;;;;;183.90;54.13;;;;;;;;;;4868827;29;20095;-84
2022/03/24 02:19:11;;;;;;;192.40;55.72;;;;;;;;;;4895006;29;20066;-84
2022/03/24 02:21:45;;;;;;;127.43;40.40;;;;;;;;;;4869607;29;20076;-84
2022/03/24 02:24:13;;;;;;;192.65;58.05;;;;;;;;;;4878080;29;20124;-84
2022/03/24 02:26:40;;;;;;;180.52;54.45;;;;;;;;;;4861343;29;20604;-85
2022/03/24 02:29:07;;;;;;;241.15;64.05;;;;;;;;;;4884356;29;20140;-85
2022/03/24 02:31:38;;;;;;;223.15;60.38;;;;;;;;;;4887361;29;20080;-84
2022/03/24 02:36:54;;;;;;;263.92;66.53;;;;;;;;;;4891983;29;20143;-84
2022/03/24 02:39:21;;;;;;;266.05;66.55;;;;;;;;;;4862446;29;20136;-83
2022/03/24 02:41:49;;;;;;;262.65;65.40;;;;;;;;;;4878638;29;20778;-84
2022/03/24 02:44:19;;;;;;;264.45;68.18;;;;;;;;;;4879407;29;20163;-84
2022/03/24 02:46:49;;;;;;;;;;;;;;;;;;4886744;29;20155;-84
2022/03/24 02:49:25;;;;;;;272.58;65.22;;;;;;;;;;4894076;29;20009;-84
2022/03/24 02:51:53;;;;;;;267.73;65.25;;;;;;;;;;4884309;29;20048;-84
2022/03/24 02:54:19;;;;;;;276.77;68.70;;;;;;;;;;4864441;29;20159;-85
2022/03/24 02:56:46;;;;;;;195.40;52.10;;;;;;;;;;4881902;29;20416;-84
2022/03/24 02:59:13;;;;;;;204.13;51.30;;;;;;;;;;4876556;29;20127;-84
2022/03/24 03:01:45;;;;;;;359.33;70.60;;;;;;;;;;4886198;29;20560;-85
2022/03/24 03:04:15;;;;;;;368.75;72.80;;;;;;;;;;4867783;29;20105;-84
2022/03/24 03:06:45;;;;;;;592.78;77.35;;;;;;;;;;4865888;29;20515;-84
2022/03/24 03:09:16;;;;;;;1156.13;101.60;;;;;;;;;;4882916;29;20147;-84
2022/03/24 03:11:44;;;;;;;910.17;87.80;;;;;;;;;;4881037;29;20143;-84
2022/03/24 03:14:18;;;;;;;1056.40;90.15;;;;;;;;;;4872080;29;20067;-84
2022/03/24 03:16:45;;;;;;;;;;;;;;;;;;4866977;29;20060;-84
2022/03/24 03:19:11;;;;;;;858.97;81.60;;;;;;;;;;4895916;29;20375;-84
2022/03/24 03:21:45;;;;;;;560.33;74.70;;;;;;;;;;4868219;29;20730;-84
2022/03/24 03:24:11;;;;;;;847.83;83.32;;;;;;;;;;4880568;29;20064;-83
2022/03/24 03:26:38;;;;;;;638.73;68.53;;;;;;;;;;4882277;29;20147;-84
2022/03/24 03:29:12;;;;;;;962.55;85.07;;;;;;;;;;4874464;29;20469;-84
2022/03/24 03:31:39;;;;;;;941.88;87.65;;;;;;;;;;4879102;29;20048;-84
2022/03/24 03:34:07;;;;;;;887.47;79.88;;;;;;;;;;4899278;29;20520;-84
2022/03/24 03:36:34;;;;;;;1079.70;88.32;;;;;;;;;;4915224;29;20076;-84
2022/03/24 03:39:00;;;;;;;884.58;80.18;;;;;;;;;;4882748;29;20060;-84
2022/03/24 03:41:29;;;;;;;313.90;58.70;;;;;;;;;;4900937;29;20052;-84
2022/03/24 03:43:56;;;;;;;789.20;76.10;;;;;;;;;;4901411;29;20204;-84
2022/03/24 03:46:23;;;;;;;887.15;70.10;;;;;;;;;;4905651;29;20131;-84
2022/03/24 03:48:49;;;;;;;947.90;80.57;;;;;;;;;;4901340;29;20151;-84
2022/03/24 03:51:18;;;;;;;522.25;62.28;;;;;;;;;;4913251;29;20721;-84
2022/03/24 03:53:45;;;;;;;1137.40;87.03;;;;;;;;;;4898268;29;20497;-84
2022/03/24 03:56:12;;;;;;;557.17;65.38;;;;;;;;;;4899052;29;20473;-85
2022/03/24 03:58:39;;;;;;;325.90;46.33;;;;;;;;;;4916067;29;20136;-83
2022/03/24 04:01:06;;;;;;;655.45;68.90;;;;;;;;;;4914311;29;20052;-84
2022/03/24 04:03:34;;;;;;;669.90;71.25;;;;;;;;;;4911865;29;20075;-84
2022/03/24 04:06:08;;;;;;;351.65;54.05;;;;;;;;;;4896370;29;20596;-84
2022/03/24 04:08:35;;;;;;;347.77;57.95;;;;;;;;;;4901737;29;20128;-84
2022/03/24 04:11:02;;;;;;;862.35;75.05;;;;;;;;;;4914112;29;20519;-84
2022/03/24 04:13:28;;;;;;;747.97;71.30;;;;;;;;;;4903377;29;20143;-84
2022/03/24 04:15:56;;;;;;;574.30;66.65;;;;;;;;;;4904827;29;20091;-85
2022/03/24 04:18:23;;;;;;;764.90;73.28;;;;;;;;;;4902375;29;20056;-85
2022/03/24 04:20:50;;;;;;;922.60;75.80;;;;;;;;;;4914844;29;20175;-84
2022/03/24 04:23:24;;;;;;;611.67;66.10;;;;;;;;;;4899056;29;20060;-84
2022/03/24 04:25:51;;;;;;;446.10;62.95;;;;;;;;;;4899427;29;20052;-84
2022/03/24 04:28:19;;;;;;;1083.22;80.53;;;;;;;;;;4899623;29;20074;-84
2022/03/24 04:30:46;;;;;;;846.28;74.63;;;;;;;;;;4910957;29;20079;-84
2022/03/24 04:33:12;;;;;;;576.80;64.50;;;;;;;;;;4904334;29;20425;-85
2022/03/24 04:35:39;;;;;;;626.77;68.00;;;;;;;;;;4915124;29;20303;-84
2022/03/24 04:38:07;;;;;;;412.75;55.88;;;;;;;;;;4894959;29;20051;-84
2022/03/24 04:40:34;;;;;;;912.38;77.78;;;;;;;;;;4914957;29;20417;-84
2022/03/24 04:43:00;;;;;;;448.52;55.97;;;;;;;;;;4915365;29;20139;-84
2022/03/24 04:45:32;;;;;;;584.05;67.90;;;;;;;;;;4910834;29;20147;-85
2022/03/24 04:48:00;;;;;;;960.40;80.07;;;;;;;;;;4898245;29;20139;-85
2022/03/24 04:50:26;;;;;;;397.05;57.42;;;;;;;;;;4913244;29;20056;-84
2022/03/24 04:52:53;;;;;;;949.17;84.25;;;;;;;;;;4892251;29;20625;-84
2022/03/24 04:55:19;;;;;;;638.70;70.60;;;;;;;;;;4882724;29;20147;-84
2022/03/24 04:57:46;;;;;;;796.40;80.50;;;;;;;;;;4894431;29;20709;-85
2022/03/24 05:00:19;;;;;;;778.95;75.78;;;;;;;;;;4895340;29;20151;-84
2022/03/24 05:02:48;;;;;;;939.37;82.00;;;;;;;;;;4898437;29;20080;-84
2022/03/24 05:05:15;;;;;;;317.02;57.88;;;;;;;;;;4896486;29;20084;-85
2022/03/24 05:07:48;;;;;;;942.88;77.97;;;;;;;;;;4916236;29;20103;-85
2022/03/24 05:10:15;;;;;;;862.03;79.38;;;;;;;;;;4913322;29;20139;-85
2022/03/24 05:12:41;;;;;;;440.92;60.15;;;;;;;;;;4898754;29;20468;-83
2022/03/24 05:15:09;;;;;;;688.47;71.87;;;;;;;;;;4912159;29;20080;-84
2022/03/24 05:17:35;;;;;;;773.58;75.18;;;;;;;;;;4892281;29;20131;-84
2022/03/24 05:20:02;;;;;;;821.35;77.32;;;;;;;;;;4893381;29;20147;-84
2022/03/24 05:22:29;;;;;;;794.90;73.35;;;;;;;;;;4913215;29;20453;-84
2022/03/24 05:24:57;;;;;;;363.08;57.05;;;;;;;;;;4896403;29;20135;-85
2022/03/24 05:27:24;;;;;;;719.10;73.85;;;;;;;;;;4895064;29;20156;-84
2022/03/24 05:29:51;;;;;;;;;;;;;;;;;;4911340;29;20083;-82
2022/03/24 05:32:17;;;;;;;833.47;72.47;;;;;;;;;;4892293;29;20353;-82
2022/03/24 05:34:44;;;;;;;458.52;57.50;;;;;;;;;;4910916;29;20143;-84
2022/03/24 05:37:12;;;;;;;863.67;77.00;;;;;;;;;;4910389;29;20475;-84
2022/03/24 05:39:39;;;;;;;566.72;64.38;;;;;;;;;;4896239;29;20052;-84
2022/03/24 05:42:06;;;;;;;439.50;65.25;;;;;;;;;;4897705;29;20131;-83
2022/03/24 05:44:32;;;;;;;451.60;60.65;;;;;;;;;;4900713;29;20143;-83
2022/03/24 05:46:59;;;;;;;427.05;63.88;;;;;;;;;;4913965;29;20142;-82
2022/03/24 05:49:26;;;;;;;457.03;46.03;;;;;;;;;;4898112;29;20055;-82
2022/03/24 05:51:59;;;;;;;415.58;58.83;;;;;;;;;;4896135;29;20163;-83
2022/03/24 05:54:26;;;;;;;193.05;51.95;;;;;;;;;;4914249;29;20123;-83
2022/03/24 05:56:52;;;;;;;354.92;57.83;;;;;;;;;;4901162;29;20059;-83
2022/03/24 05:59:22;;;;;;;388.55;63.22;;;;;;;;;;4910777;29;20143;-81
2022/03/24 06:01:49;;;;;;;456.77;63.35;;;;;;;;;;4890401;29;20052;-82
2022/03/24 06:04:18;;;;;;;451.03;61.57;;;;;;;;;;4909558;29;20131;-82
2022/03/24 06:06:44;;;;;;;551.47;60.92;;;;;;;;;;4910837;29;20316;-82
2022/03/24 06:09:11;;;;;;;305.85;57.22;;;;;;;;;;4913876;29;20115;-82
2022/03/24 06:11:39;;;;;;;640.60;66.43;;;;;;;;;;4891001;29;20060;-84
2022/03/24 06:14:12;;;;;;;603.22;65.75;;;;;;;;;;4895393;29;20408;-84
2022/03/24 06:16:40;;;;;;;418.00;61.20;;;;;;;;;;4892904;29;20529;-85
2022/03/24 06:19:14;;;;;;;447.30;62.05;;;;;;;;;;4897100;29;20147;-84
2022/03/24 06:21:40;;;;;;;286.60;46.10;;;;;;;;;;4891876;29;20084;-84
2022/03/24 06:24:07;;;;;;;456.92;62.42;;;;;;;;;;4900096;29;20143;-84
2022/03/24 06:26:34;;;;;;;270.23;55.13;;;;;;;;;;4897584;29;20059;-84
2022/03/24 06:29:01;;;;;;;359.23;59.88;;;;;;;;;;4900465;29;20138;-84
2022/03/24 06:31:27;;;;;;;314.73;58.03;;;;;;;;;;4896296;29;20059;-85
2022/03/24 06:34:01;;;;;;;210.93;53.60;;;;;;;;;;4913829;29;20832;-85
2022/03/24 06:36:31;;;;;;;303.52;58.97;;;;;;;;;;4895557;29;20059;-84
2022/03/24 06:38:57;;;;;;;257.25;56.72;;;;;;;;;;4897348;29;20088;-85
2022/03/24 06:41:24;;;;;;;189.77;53.53;;;;;;;;;;4894104;29;20163;-84
2022/03/24 06:43:59;;;;;;;298.80;60.33;;;;;;;;;;4897979;29;20139;-85
2022/03/24 06:46:27;;;;;;;271.00;57.42;;;;;;;;;;4896860;29;20056;-85
2022/03/24 06:48:54;;;;;;;286.27;59.50;;;;;;;;;;4912938;29;20576;-85
2022/03/24 06:51:21;;;;;;;264.20;58.60;;;;;;;;;;4895380;29;20056;-84
2022/03/24 06:53:48;;;;;;;164.27;48.70;;;;;;;;;;4897227;29;20080;-84
2022/03/24 06:56:15;;;;;;;240.50;56.55;;;;;;;;;;4911620;29;20143;-85
2022/03/24 06:59:05;;;;;;;179.65;48.38;;;;;;;;;;4894710;29;20064;-85
2022/03/24 07:01:32;;;;;;;193.77;52.83;;;;;;;;;;4896466;29;20151;-85
2022/03/24 07:04:05;;;;;;;326.05;60.42;;;;;;;;;;4911091;29;20059;-85
2022/03/24 07:06:32;;;;;;;287.60;59.05;;;;;;;;;;4898071;29;20060;-84
2022/03/24 07:08:58;;;;;;;197.00;52.80;;;;;;;;;;4894209;29;20131;-84
2022/03/24 07:11:32;;;;;;;218.48;51.72;;;;;;;;;;4898651;29;20087;-84
2022/03/24 07:13:58;;;;;;;126.68;47.50;;;;;;;;;;4892490;29;20072;-84
2022/03/24 07:16:25;;;;;;;352.58;60.67;;;;;;;;;;4895464;29;20199;-85
2022/03/24 07:18:58;;;;;;;260.63;57.10;;;;;;;;;;4912302;29;20076;-84
2022/03/24 07:21:25;;;;;;;288.77;57.75;;;;;;;;;;4891980;29;20075;-84
2022/03/24 07:23:51;;;;;;;200.30;55.42;;;;;;;;;;4901823;29;20059;-85
2022/03/24 07:26:24;;;;;;;219.27;56.05;;;;;;;;;;4912417;29;20100;-84
2022/03/24 07:28:51;;;;;;;206.80;56.83;;;;;;;;;;4913142;29;20530;-84
2022/03/24 07:31:19;;;;;;;185.57;52.63;;;;;;;;;;4898815;29;20095;-84
2022/03/24 07:33:47;;;;;;;208.55;55.42;;;;;;;;;;4915613;29;20465;-84
2022/03/24 07:36:14;;;;;;;235.48;58.20;;;;;;;;;;4892850;29;20147;-84
2022/03/24 07:38:41;;;;;;;167.60;53.15;;;;;;;;;;4916778;29;20131;-85
2022/03/24 07:41:08;;;;;;;214.05;56.53;;;;;;;;;;4915864;29;20087;-85
2022/03/24 07:43:34;;;;;;;283.05;57.33;;;;;;;;;;4901942;29;20154;-86
2022/03/24 07:46:01;;;;;;;232.75;55.25;;;;;;;;;;4914581;29;20135;-85
2022/03/24 07:48:30;;;;;;;216.35;56.72;;;;;;;;;;4899467;29;20085;-85
2022/03/24 07:50:57;;;;;;;206.80;54.45;;;;;;;;;;4900355;29;20474;-85
2022/03/24 07:53:39;;;;;;;180.15;54.17;;;;;;;;;;4899926;29;20075;-84
2022/03/24 07:56:05;;;;;;;196.30;55.08;;;;;;;;;;4895599;29;20481;-84
2022/03/24 07:58:33;;;;;;;199.02;56.97;;;;;;;;;;4914971;29;20552;-85
2022/03/24 08:01:00;;;;;;;183.63;53.40;;;;;;;;;;4915978;29;20214;-86
2022/03/24 08:03:27;;;;;;;239.40;56.30;;;;;;;;;;4915759;29;20418;-85
2022/03/24 08:05:57;;;;;;;204.68;57.42;;;;;;;;;;4915269;29;20079;-85
2022/03/24 08:08:24;;;;;;;202.23;59.55;;;;;;;;;;4894810;29;20079;-85
2022/03/24 08:10:51;;;;;;;230.77;52.87;;;;;;;;;;4893637;29;20169;-85
2022/03/24 08:13:25;;;;;;;197.45;57.33;;;;;;;;;;4899228;29;20144;-85
2022/03/24 08:15:51;;;;;;;295.13;57.22;;;;;;;;;;4915954;29;20138;-85
2022/03/24 08:18:19;;;;;;;321.10;58.75;;;;;;;;;;4897650;29;20048;-84
2022/03/24 08:20:51;;;;;;;196.30;53.42;;;;;;;;;;4895379;29;20139;-85
2022/03/24 08:23:18;;;;;;;174.52;55.08;;;;;;;;;;4894262;29;20060;-85
2022/03/24 08:25:44;;;;;;;241.40;58.33;;;;;;;;;;4916896;29;20052;-85
2022/03/24 08:28:12;;;;;;;187.38;55.55;;;;;;;;;;4914720;29;20872;-85
2022/03/24 08:30:39;;;;;;;159.68;56.25;;;;;;;;;;4897417;29;20142;-85
2022/03/24 08:33:06;;;;;;;162.30;54.67;;;;;;;;;;4895421;29;20625;-85
2022/03/24 08:35:33;;;;;;;135.65;52.22;;;;;;;;;;4914212;29;20114;-85
2022/03/24 08:38:00;;;;;;;126.60;51.63;;;;;;;;;;4898407;29;20087;-86
2022/03/24 08:40:26;;;;;;;107.13;39.80;;;;;;;;;;4912628;29;20483;-85
2022/03/24 08:42:53;;;;;;;126.40;51.42;;;;;;;;;;4914331;29;20112;-85
2022/03/24 08:45:20;;;;;;;114.60;49.55;;;;;;;;;;4914337;29;20079;-85
2022/03/24 08:47:53;;;;;;;123.07;53.25;;;;;;;;;;4900395;29;20078;-85
2022/03/24 08:50:20;;;;;;;111.85;50.78;;;;;;;;;;4915731;29;20055;-85
2022/03/24 08:52:47;;;;;;;103.30;51.20;;;;;;;;;;4912456;29;20457;-85
2022/03/24 08:55:14;;;;;;;;;;;;;;;;;;4914423;29;20504;-85
2022/03/24 08:57:42;;;;;;;94.68;44.60;;;;;;;;;;4915333;29;20466;-85
2022/03/24 09:00:12;;;;;;;88.07;46.00;;;;;;;;;;4914752;29;20549;-85
2022/03/24 09:02:43;;;;;;;88.57;45.30;;;;;;;;;;4893193;29;20135;-86
2022/03/24 09:05:10;;;;;;;83.45;43.95;;;;;;;;;;4913331;29;20139;-85
2022/03/24 09:07:37;;;;;;;75.50;40.85;;;;;;;;;;4897822;29;20139;-83
2022/03/24 09:10:10;;;;;;;75.22;39.53;;;;;;;;;;4914010;29;20139;-83
2022/03/24 09:12:38;;;;;;;72.63;40.42;;;;;;;;;;4898397;29;20052;-83
2022/03/24 09:15:05;;;;;;;66.53;37.45;;;;;;;;;;4897031;29;20052;-83
2022/03/24 09:17:32;;;;;;;64.30;37.00;;;;;;;;;;4912449;29;20493;-83
2022/03/24 09:19:59;;;;;;;72.65;38.28;;;;;;;;;;4913820;29;20132;-83
2022/03/24 09:22:25;;;;;;;63.55;36.08;;;;;;;;;;4891207;29;20088;-83
2022/03/24 09:24:52;;;;;;;59.38;36.72;;;;;;;;;;4914112;29;20483;-83
2022/03/24 09:27:18;;;;;;;62.22;34.85;;;;;;;;;;4892831;29;20138;-83
2022/03/24 09:29:45;;;;;;;58.80;33.45;;;;;;;;;;4896908;29;20201;-83
2022/03/24 09:32:18;;;;;;;52.60;32.67;;;;;;;;;;4915397;29;20121;-82
2022/03/24 09:34:52;;;;;;;54.37;32.50;;;;;;;;;;4897926;28;20087;-83
2022/03/24 09:37:22;;;;;;;50.90;31.48;;;;;;;;;;4910913;29;20463;-83
2022/03/24 09:39:49;;;;;;;50.17;29.80;;;;;;;;;;4913510;29;20472;-82
2022/03/24 09:42:17;;;;;;;53.47;29.90;;;;;;;;;;4897161;29;20135;-82
2022/03/24 09:44:45;;;;;;;49.22;31.35;;;;;;;;;;4914422;29;20052;-84
2022/03/24 09:47:12;;;;;;;46.75;28.30;;;;;;;;;;4897080;29;20083;-83
2022/03/24 09:49:40;;;;;;;45.97;28.13;;;;;;;;;;4899751;29;20054;-84
2022/03/24 09:52:08;;;;;;;46.17;28.42;;;;;;;;;;4913737;29;20605;-83
2022/03/24 09:54:34;;;;;;;43.85;27.27;;;;;;;;;;4912975;29;20138;-84
2022/03/24 09:57:04;;;;;;;44.03;27.40;;;;;;;;;;4896838;29;20151;-83
2022/03/24 09:59:32;;;;;;;46.05;26.38;;;;;;;;;;4896183;29;20147;-84
2022/03/24 10:02:01;;;;;;;44.13;26.60;;;;;;;;;;4897519;29;20147;-84
2022/03/24 10:04:27;;;;;;;48.65;27.17;;;;;;;;;;4911832;29;20070;-83
2022/03/24 10:07:02;;;;;;;37.83;24.95;;;;;;;;;;4913422;29;20142;-83
2022/03/24 10:09:35;;;;;;;42.47;25.92;;;;;;;;;;4887680;29;20063;-84
2022/03/24 10:12:03;;;;;;;43.17;25.52;;;;;;;;;;4913714;29;20134;-83
2022/03/24 10:14:30;;;;;;;39.70;24.08;;;;;;;;;;4914420;29;20592;-84
2022/03/24 10:17:04;;;;;;;40.75;23.95;;;;;;;;;;4912952;29;20051;-84
2022/03/24 10:19:32;;;;;;;37.33;23.33;;;;;;;;;;4911219;29;20048;-83
2022/03/24 10:22:05;;;;;;;42.60;24.33;;;;;;;;;;4891702;29;20132;-84
2022/03/24 10:24:38;;;;;;;38.50;23.90;;;;;;;;;;4897626;29;20082;-83
2022/03/24 10:27:05;;;;;;;38.65;23.05;;;;;;;;;;4910723;29;20143;-84
2022/03/24 10:29:33;;;;;;;41.83;24.67;;;;;;;;;;4911776;29;20048;-84
2022/03/24 10:32:00;;;;;;;43.28;23.77;;;;;;;;;;4896158;29;20131;-84
2022/03/24 10:34:30;;;;;;;40.83;22.88;;;;;;;;;;4912206;29;20151;-84
2022/03/24 10:36:58;;;;;;;37.03;21.85;;;;;;;;;;4911021;29;20059;-84
2022/03/24 10:39:25;;;;;;;37.70;22.30;;;;;;;;;;4915792;29;20088;-83
2022/03/24 10:41:52;;;;;;;33.05;20.15;;;;;;;;;;4892327;29;20060;-82
2022/03/24 10:44:19;;;;;;;33.22;19.85;;;;;;;;;;4912252;29;20127;-84
2022/03/24 10:46:45;;;;;;;32.67;20.40;;;;;;;;;;4906188;29;20448;-83
2022/03/24 10:49:23;;;;;;;33.80;20.42;;;;;;;;;;4913295;29;20274;-84
2022/03/24 10:51:55;;;;;;;37.22;21.15;;;;;;;;;;4897959;29;20500;-83
2022/03/24 10:54:27;;;;;;;33.90;21.15;;;;;;;;;;4887693;29;20056;-84
2022/03/24 10:56:54;;;;;;;29.60;20.38;;;;;;;;;;4892572;29;20504;-84
2022/03/24 10:59:22;;;;;;;34.42;20.65;;;;;;;;;;4913112;29;20056;-84
2022/03/24 11:01:49;;;;;;;35.30;21.17;;;;;;;;;;4893386;29;20134;-84
2022/03/24 11:04:19;;;;;;;32.70;20.05;;;;;;;;;;4913771;29;20047;-84
2022/03/24 11:06:52;;;;;;;34.78;21.00;;;;;;;;;;4895016;29;20147;-84
2022/03/24 11:09:23;;;;;;;34.55;17.50;;;;;;;;;;4913940;29;20131;-84
2022/03/24 11:12:16;;;;;;;29.13;18.60;;;;;;;;;;4914878;29;20076;-83
2022/03/24 11:14:51;;;;;;;29.13;18.00;;;;;;;;;;4894858;29;20084;-84
2022/03/24 11:17:18;;;;;;;31.15;18.30;;;;;;;;;;4902307;29;20481;-84
2022/03/24 11:19:54;;;;;;;26.50;16.70;;;;;;;;;;4913941;29;20143;-84
2022/03/24 11:22:32;;;;;;;29.90;19.15;;;;;;;;;;4917069;29;20556;-84
2022/03/24 11:25:00;;;;;;;25.83;15.77;;;;;;;;;;4917059;29;20139;-84
2022/03/24 11:27:27;;;;;;;21.25;14.00;;;;;;;;;;4902618;29;20095;-86
2022/03/24 11:29:54;;;;;;;21.73;13.10;;;;;;;;;;4916543;29;20501;-83
2022/03/24 11:32:21;;;;;;;23.45;13.35;;;;;;;;;;4896564;29;20140;-84
2022/03/24 11:34:55;;;;;;;26.95;13.48;;;;;;;;;;4917241;28;20102;-84
2022/03/24 11:37:22;;;;;;;23.42;13.20;;;;;;;;;;4899567;29;20086;-84
2022/03/24 11:40:02;;;;;;;23.73;12.70;;;;;;;;;;4914538;29;20087;-84
2022/03/24 11:42:29;;;;;;;22.80;13.00;;;;;;;;;;4914986;29;20087;-84
2022/03/24 11:45:00;;;;;;;22.27;12.30;;;;;;;;;;4914499;29;20142;-84
2022/03/24 11:47:33;;;;;;;23.02;12.00;;;;;;;;;;4899025;29;20056;-85
2022/03/24 11:50:07;;;;;;;22.92;12.02;;;;;;;;;;4916060;29;20048;-84
2022/03/24 11:52:33;;;;;;;23.70;12.52;;;;;;;;;;4891592;29;20945;-84
2022/03/24 11:55:00;;;;;;;21.00;12.45;;;;;;;;;;4900457;29;20095;-85
2022/03/24 11:57:29;;;;;;;19.80;12.07;;;;;;;;;;4913437;29;20067;-84
2022/03/24 12:00:14;;;;;;;20.55;11.75;;;;;;;;;;4895003;29;20112;-84
2022/03/24 12:02:51;;;;;;;19.27;12.63;;;;;;;;;;4900022;29;20075;-85
2022/03/24 12:05:17;;;;;;;19.85;12.13;;;;;;;;;;4917006;29;20086;-84
2022/03/24 12:07:44;;;;;;;21.25;12.52;;;;;;;;;;4916358;29;20139;-84
2022/03/24 12:10:15;;;;;;;22.00;11.98;;;;;;;;;;4903741;29;20088;-84
2022/03/24 12:13:01;;;;;;;20.73;12.75;;;;;;;;;;4897611;29;20083;-84
2022/03/24 12:15:27;;;;;;;22.02;11.63;;;;;;;;;;4914311;29;20151;-84
2022/03/24 12:18:05;;;;;;;23.63;10.65;;;;;;;;;;4901475;29;20063;-84
2022/03/24 12:20:41;;;;;;;19.27;9.80;;;;;;;;;;4917517;29;20111;-83
2022/03/24 12:23:08;;;;;;;19.48;9.63;;;;;;;;;;4893846;29;20415;-84
2022/03/24 12:25:35;;;;;;;25.10;9.52;;;;;;;;;;4910020;29;20147;-84
2022/03/24 12:28:04;;;;;;;19.20;9.05;;;;;;;;;;4915901;29;20135;-85
2022/03/24 12:30:42;;;;;;;20.42;7.53;;;;;;;;;;4913123;29;20071;-85
2022/03/24 12:33:17;;;;;;;16.33;7.45;;;;;;;;;;4914948;29;20151;-85
2022/03/24 12:35:51;;;;;;;20.55;9.20;;;;;;;;;;4884198;29;20461;-84
2022/03/24 12:38:26;;;;;;;20.40;8.63;;;;;;;;;;4898292;29;20056;-84
2022/03/24 12:41:05;;;;;;;23.67;8.32;;;;;;;;;;4892841;29;20106;-85
2022/03/24 12:43:53;;;;;;;18.17;7.40;;;;;;;;;;4894322;29;20088;-84
2022/03/24 12:46:28;;;;;;;17.05;6.65;;;;;;;;;;4894856;29;20088;-85
2022/03/24 12:48:57;;;;;;;19.42;7.40;;;;;;;;;;4897851;29;20063;-84
2022/03/24 12:51:28;;;;;;;16.02;7.20;;;;;;;;;;4895788;29;20060;-84
2022/03/24 12:53:59;;;;;;;22.40;7.78;;;;;;;;;;4880136;29;20140;-85
2022/03/24 12:56:27;;;;;;;17.88;7.30;;;;;;;;;;4895105;29;20179;-85
2022/03/24 12:58:53;;;;;;;;;;;;;;;;;;4879015;29;20076;-85
2022/03/24 13:01:21;;;;;;;17.33;6.82;;;;;;;;;;4893639;29;19970;-84
2022/03/24 13:03:56;;;;;;;15.75;5.97;;;;;;;;;;4893522;29;20140;-84
2022/03/24 13:06:23;;;;;;;17.00;7.68;;;;;;;;;;4894408;29;20096;-83
2022/03/24 13:09:08;;;;;;;24.23;8.45;;;;;;;;;;4894795;29;20083;-84
2022/03/24 13:12:10;;;;;;;16.92;6.78;;;;;;;;;;4896308;29;20147;-85
2022/03/24 13:14:46;;;;;;;18.00;8.27;;;;;;;;;;4881842;29;20114;-84
2022/03/24 13:17:19;;;;;;;25.77;8.35;;;;;;;;;;4895506;29;20067;-85
2022/03/24 13:19:49;;;;;;;25.33;8.27;;;;;;;;;;4878571;29;20100;-84
2022/03/24 13:22:23;;;;;;;18.83;8.43;;;;;;;;;;4895949;29;20435;-85
2022/03/24 13:25:02;;;;;;;16.88;7.22;;;;;;;;;;4875154;29;20143;-85
2022/03/24 13:27:32;;;;;;;20.52;8.18;;;;;;;;;;4893671;29;20125;-85
2022/03/24 13:30:07;;;;;;;18.17;6.90;;;;;;;;;;4870942;29;20107;-84
2022/03/24 13:32:34;;;;;;;25.42;7.82;;;;;;;;;;4894071;29;20083;-85
2022/03/24 13:35:08;;;;;;;15.20;7.72;;;;;;;;;;4889903;28;20139;-84
2022/03/24 13:37:46;;;;;;;16.17;8.43;;;;;;;;;;4911097;29;20056;-84
2022/03/24 13:40:14;;;;;;;18.00;8.10;;;;;;;;;;4893642;29;20082;-85
2022/03/24 13:42:42;;;;;;;25.25;8.23;;;;;;;;;;4912374;29;20083;-85
2022/03/24 13:45:08;;;;;;;;;;;;;;;;;;4902561;29;20056;-85
2022/03/24 13:47:39;;;;;;;22.80;8.68;;;;;;;;;;4892223;29;19980;-85
2022/03/24 13:50:16;;;;;;;25.60;9.45;;;;;;;;;;4914102;29;20044;-85
2022/03/24 13:52:45;;;;;;;18.17;8.80;;;;;;;;;;4892610;29;20091;-85
2022/03/24 13:55:13;;;;;;;22.33;9.43;;;;;;;;;;4900145;29;20080;-85
2022/03/24 13:57:49;;;;;;;17.73;9.15;;;;;;;;;;4910160;29;20083;-85
2022/03/24 14:00:28;;;;;;;21.77;8.82;;;;;;;;;;4912582;29;20132;-84
2022/03/24 14:03:14;;;;;;;19.05;7.85;;;;;;;;;;4914311;29;20137;-85
2022/03/24 14:05:45;;;;;;;21.17;8.07;;;;;;;;;;4911016;29;20048;-85
2022/03/24 14:08:21;;;;;;;16.65;7.90;;;;;;;;;;4912793;29;20397;-85
2022/03/24 14:10:50;;;;;;;16.75;8.50;;;;;;;;;;4913301;29;20075;-85
2022/03/24 14:13:25;;;;;;;20.73;8.18;;;;;;;;;;4893331;29;20080;-85
2022/03/24 14:16:05;;;;;;;23.30;8.35;;;;;;;;;;4913546;29;20059;-84
2022/03/24 14:18:32;;;;;;;17.05;8.32;;;;;;;;;;4913914;29;20574;-84
2022/03/24 14:20:59;;;;;;;16.80;8.25;;;;;;;;;;4912282;29;20143;-85
2022/03/24 14:23:26;;;;;;;22.80;8.18;;;;;;;;;;4892488;29;20135;-85
2022/03/24 14:26:03;;;;;;;16.10;7.65;;;;;;;;;;4897723;29;20111;-85
2022/03/24 14:28:33;;;;;;;19.77;7.78;;;;;;;;;;4912394;29;20079;-85